createdAt,value
2023-03-02T00:01:09.522Z,101065.72
2023-03-02T00:04:17.425Z,101060.56
2023-03-02T00:07:27.045Z,101055.44
2023-03-02T00:10:31.302Z,101057.16
2023-03-02T00:13:35.751Z,101051.19
2023-03-02T00:16:40.183Z,101058.97
2023-03-02T00:19:44.783Z,101064.84
2023-03-02T00:22:48.217Z,101060.50
2023-03-02T00:25:50.845Z,101058.78
2023-03-02T00:28:53.887Z,101055.28
2023-03-02T00:31:56.606Z,101056.12
2023-03-02T00:34:59.706Z,101053.50
2023-03-02T00:38:02.195Z,101042.41
2023-03-02T00:41:05.504Z,101034.72
2023-03-02T00:44:10.720Z,101040.69
2023-03-02T00:47:14.123Z,101033.06
2023-03-02T00:50:17.813Z,101030.44
2023-03-02T00:53:20.606Z,101023.63
2023-03-02T00:56:23.166Z,101027.84
2023-03-02T00:59:30.483Z,101017.72
2023-03-02T01:02:34.182Z,101017.63
2023-03-02T01:05:37.761Z,101009.94
2023-03-02T01:08:40.341Z,101015.00
2023-03-02T01:11:43.402Z,101010.75
2023-03-02T01:14:48.141Z,100999.66
2023-03-02T01:17:50.952Z,101000.47
2023-03-02T01:21:02.823Z,100995.28
2023-03-02T01:24:06.098Z,100994.44
2023-03-02T01:27:08.589Z,100993.63
2023-03-02T01:30:12.979Z,100988.47
2023-03-02T01:33:16.605Z,100982.56
2023-03-02T01:36:19.434Z,100980.81
2023-03-02T01:39:24.810Z,100962.87
2023-03-02T01:42:33.698Z,100962.84
2023-03-02T01:45:57.465Z,100952.56
2023-03-02T01:49:07.794Z,100956.78
2023-03-02T01:52:12.178Z,100958.44
2023-03-02T01:55:20.197Z,100958.38
2023-03-02T01:58:23.304Z,100957.50
2023-03-02T02:01:26.974Z,100950.75
2023-03-02T02:04:31.067Z,100950.78
2023-03-02T02:07:33.834Z,100950.75
2023-03-02T02:10:37.347Z,100938.87
2023-03-02T02:13:40.246Z,100938.87
2023-03-02T02:16:43.137Z,100938.87
2023-03-02T02:19:56.422Z,100934.59
2023-03-02T02:23:35.645Z,100940.56
2023-03-02T02:26:46.704Z,100938.00
2023-03-02T02:29:52.519Z,100938.81
2023-03-02T02:32:58.469Z,100937.06
2023-03-02T02:36:07.235Z,100936.22
2023-03-02T02:39:17.830Z,100936.19
2023-03-02T02:42:33.700Z,100927.69
2023-03-02T02:45:36.695Z,100925.97
2023-03-02T02:48:40.099Z,100920.88
2023-03-02T02:51:43.070Z,100926.84
2023-03-02T02:54:49.336Z,100925.13
2023-03-02T02:57:56.323Z,100922.63
2023-03-02T03:01:00.493Z,100920.91
2023-03-02T03:04:06.118Z,100920.09
2023-03-02T03:07:12.922Z,100924.31
2023-03-02T03:10:23.234Z,100920.03
2023-03-02T03:13:26.225Z,100920.84
2023-03-02T03:16:31.517Z,100925.91
2023-03-02T03:19:34.838Z,100916.66
2023-03-02T03:22:38.798Z,100925.06
2023-03-02T03:25:41.962Z,100925.94
2023-03-02T03:28:45.715Z,100926.78
2023-03-02T03:31:48.859Z,100925.06
2023-03-02T03:34:52.279Z,100924.16
2023-03-02T03:37:55.564Z,100919.94
2023-03-02T03:40:58.895Z,100919.06
2023-03-02T03:44:01.987Z,100925.00
2023-03-02T03:47:05.258Z,100925.03
2023-03-02T03:50:09.503Z,100930.94
2023-03-02T03:53:13.579Z,100933.50
2023-03-02T03:56:16.606Z,100935.16
2023-03-02T03:59:22.626Z,100936.81
2023-03-02T04:02:25.853Z,100935.16
2023-03-02T04:05:30.677Z,100943.78
2023-03-02T04:08:35.890Z,100943.75
2023-03-02T04:11:41.650Z,100936.94
2023-03-02T04:14:45.576Z,100931.81
2023-03-02T04:17:48.595Z,100933.47
2023-03-02T04:20:52.718Z,100940.38
2023-03-02T04:23:56.405Z,100936.13
2023-03-02T04:26:59.132Z,100939.41
2023-03-02T04:30:02.224Z,100931.69
2023-03-02T04:33:05.189Z,100939.22
2023-03-02T04:36:08.764Z,100932.34
2023-03-02T04:39:14.845Z,100935.69
2023-03-02T04:42:20.541Z,100935.69
2023-03-02T04:45:23.104Z,100937.34
2023-03-02T04:48:26.160Z,100928.81
2023-03-02T04:51:31.878Z,100932.22
2023-03-02T04:54:34.649Z,100922.88
2023-03-02T04:57:37.264Z,100922.81
2023-03-02T05:00:40.309Z,100927.94
2023-03-02T05:03:42.956Z,100932.09
2023-03-02T05:06:45.902Z,100929.59
2023-03-02T05:09:48.454Z,100927.88
2023-03-02T05:13:05.751Z,100927.06
2023-03-02T05:16:08.399Z,100927.06
2023-03-02T05:19:12.502Z,100928.84
2023-03-02T05:22:15.103Z,100926.34
2023-03-02T05:25:17.908Z,100934.19
2023-03-02T05:28:22.215Z,100933.34
2023-03-02T05:31:31.968Z,100932.44
2023-03-02T05:34:34.655Z,100928.19
2023-03-02T05:37:41.513Z,100939.94
2023-03-02T05:40:44.345Z,100942.44
2023-03-02T05:43:48.028Z,100943.34
2023-03-02T05:46:50.627Z,100945.91
2023-03-02T05:49:53.546Z,100956.16
2023-03-02T05:52:56.180Z,100954.50
2023-03-02T05:55:59.029Z,100955.44
2023-03-02T05:59:01.825Z,100948.69
2023-03-02T06:02:04.653Z,100952.16
2023-03-02T06:05:18.914Z,100950.56
2023-03-02T06:08:21.932Z,100965.19
2023-03-02T06:11:25.019Z,100960.16
2023-03-02T06:14:27.542Z,100976.53
2023-03-02T06:17:30.358Z,100969.13
2023-03-02T06:20:33.116Z,100973.50
2023-03-02T06:23:36.085Z,100974.38
2023-03-02T06:26:38.664Z,100970.19
2023-03-02T06:29:41.804Z,100972.00
2023-03-02T06:32:46.055Z,100969.50
2023-03-02T06:35:49.650Z,100973.81
2023-03-02T06:38:53.150Z,100973.91
2023-03-02T06:41:56.424Z,100984.16
2023-03-02T06:44:58.957Z,100979.03
2023-03-02T06:48:02.409Z,100982.50
2023-03-02T06:51:06.154Z,100985.13
2023-03-02T06:54:09.294Z,100982.56
2023-03-02T06:57:11.781Z,100979.19
2023-03-02T07:00:17.373Z,100981.75
2023-03-02T07:03:24.658Z,100984.28
2023-03-02T07:06:27.676Z,100980.84
2023-03-02T07:09:33.957Z,100995.38
2023-03-02T07:12:36.807Z,100984.22
2023-03-02T07:15:40.107Z,100991.06
2023-03-02T07:18:43.032Z,100988.44
2023-03-02T07:21:45.640Z,100984.16
2023-03-02T07:24:48.393Z,100993.50
2023-03-02T07:27:50.979Z,100990.81
2023-03-02T07:30:55.532Z,100990.69
2023-03-02T07:33:58.159Z,100999.09
2023-03-02T07:37:00.988Z,100996.50
2023-03-02T07:40:04.426Z,100985.28
2023-03-02T07:43:07.701Z,100989.47
2023-03-02T07:46:10.339Z,100981.59
2023-03-02T07:49:13.635Z,100986.63
2023-03-02T07:52:16.315Z,100983.88
2023-03-02T07:55:19.309Z,100972.66
2023-03-02T07:58:21.869Z,100983.56
2023-03-02T08:01:24.816Z,100968.91
2023-03-02T08:04:27.773Z,100972.00
2023-03-02T08:07:32.834Z,100976.91
2023-03-02T08:10:36.961Z,100975.06
2023-03-02T08:13:40.548Z,100976.69
2023-03-02T08:16:43.422Z,100979.03
2023-03-02T08:19:46.847Z,100978.81
2023-03-02T08:22:51.721Z,100976.16
2023-03-02T08:25:55.328Z,100976.63
2023-03-02T08:28:59.048Z,100983.25
2023-03-02T08:32:01.845Z,100979.41
2023-03-02T08:35:05.548Z,100981.91
2023-03-02T08:38:08.419Z,100984.91
2023-03-02T08:41:16.734Z,100970.16
2023-03-02T08:44:22.135Z,100970.88
2023-03-02T08:47:24.980Z,100967.62
2023-03-02T08:50:28.701Z,100965.47
2023-03-02T08:53:34.866Z,100972.87
2023-03-02T08:56:39.254Z,100965.00
2023-03-02T08:59:44.542Z,100964.94
2023-03-02T09:02:47.222Z,100957.91
2023-03-02T09:05:51.014Z,100960.03
2023-03-02T09:08:53.662Z,100960.25
2023-03-02T09:11:56.838Z,100954.97
2023-03-02T09:14:59.422Z,100961.75
2023-03-02T09:18:02.319Z,100954.69
2023-03-02T09:21:05.377Z,100949.69
2023-03-02T09:24:08.665Z,100949.94
2023-03-02T09:27:11.252Z,100949.69
2023-03-02T09:30:15.685Z,100947.69
2023-03-02T09:33:21.118Z,100937.91
2023-03-02T09:36:26.169Z,100933.94
2023-03-02T09:39:28.802Z,100935.59
2023-03-02T09:42:56.171Z,100933.53
2023-03-02T09:46:15.225Z,100933.84
2023-03-02T09:49:59.979Z,100931.59
2023-03-02T09:53:17.541Z,100927.12
2023-03-02T09:56:21.685Z,100918.31
2023-03-02T09:59:41.052Z,100920.78
2023-03-02T10:03:05.102Z,100927.41
2023-03-02T10:06:14.493Z,100920.06
2023-03-02T10:09:17.367Z,100914.38
2023-03-02T10:12:29.031Z,100919.19
2023-03-02T10:15:37.720Z,100916.13
2023-03-02T10:19:08.056Z,100904.41
2023-03-02T10:22:32.748Z,100899.81
2023-03-02T10:25:48.969Z,100900.63
2023-03-02T10:29:05.703Z,100905.75
2023-03-02T10:32:16.774Z,100896.28
2023-03-02T10:35:24.743Z,100898.69
2023-03-02T10:38:28.841Z,100892.94
2023-03-02T10:41:40.916Z,100891.09
2023-03-02T10:44:51.124Z,100890.25
2023-03-02T10:48:01.742Z,100884.22
2023-03-02T10:51:04.951Z,100881.41
2023-03-02T10:54:11.940Z,100885.66
2023-03-02T10:57:37.293Z,100874.31
2023-03-02T11:00:40.148Z,100865.84
2023-03-02T11:03:43.077Z,100865.84
2023-03-02T11:06:45.616Z,100862.00
2023-03-02T11:10:05.239Z,100855.13
2023-03-02T11:13:20.618Z,100851.41
2023-03-02T11:16:31.688Z,100843.63
2023-03-02T11:19:41.117Z,100845.06
2023-03-02T11:22:53.611Z,100845.59
2023-03-02T11:26:05.373Z,100847.22
2023-03-02T11:29:36.521Z,100837.69
2023-03-02T11:32:42.071Z,100837.81
2023-03-02T11:35:55.373Z,100830.19
2023-03-02T11:38:58.104Z,100825.59
2023-03-02T11:42:01.177Z,100821.28
2023-03-02T11:45:16.466Z,100819.31
2023-03-02T11:48:27.019Z,100812.87
2023-03-02T11:51:36.299Z,100806.78
2023-03-02T11:54:46.096Z,100808.00
2023-03-02T12:01:12.949Z,100799.63
2023-03-02T12:04:34.993Z,100795.72
2023-03-02T12:07:37.647Z,100790.03
2023-03-02T12:10:43.758Z,100789.78
2023-03-02T12:13:49.725Z,100783.88
2023-03-02T12:17:17.599Z,100785.94
2023-03-02T12:20:26.964Z,100785.31
2023-03-02T12:23:32.017Z,100781.75
2023-03-02T12:26:37.405Z,100775.31
2023-03-02T12:29:44.824Z,100778.56
2023-03-02T12:33:02.513Z,100781.47
2023-03-02T12:36:13.488Z,100780.69
2023-03-02T12:39:54.816Z,100778.31
2023-03-02T12:43:12.653Z,100767.38
2023-03-02T12:46:36.753Z,100765.34
2023-03-02T12:49:42.787Z,100756.75
2023-03-02T12:52:56.033Z,100765.72
2023-03-02T12:55:58.949Z,100749.69
2023-03-02T12:59:01.616Z,100754.31
2023-03-02T13:02:26.080Z,100752.63
2023-03-02T13:05:34.801Z,100750.84
2023-03-02T13:08:38.078Z,100743.66
2023-03-02T13:11:44.311Z,100738.13
2023-03-02T13:14:52.624Z,100733.00
2023-03-02T13:17:58.223Z,100735.91
2023-03-02T13:21:03.709Z,100732.22
2023-03-02T13:24:26.935Z,100731.16
2023-03-02T13:27:30.805Z,100733.31
2023-03-02T13:30:47.669Z,100723.97
2023-03-02T13:33:53.613Z,100724.16
2023-03-02T13:36:56.218Z,100723.66
2023-03-02T13:40:02.138Z,100715.53
2023-03-02T13:43:19.131Z,100703.72
2023-03-02T13:46:22.216Z,100700.94
2023-03-02T13:49:33.187Z,100699.88
2023-03-02T13:52:36.066Z,100696.88
2023-03-02T13:55:39.897Z,100698.13
2023-03-02T13:58:43.390Z,100691.34
2023-03-02T14:01:46.446Z,100680.25
2023-03-02T14:04:49.412Z,100675.88
2023-03-02T14:07:52.089Z,100683.19
2023-03-02T14:10:59.839Z,100670.50
2023-03-02T14:14:04.907Z,100671.91
2023-03-02T14:17:15.229Z,100668.94
2023-03-02T14:20:20.532Z,100665.03
2023-03-02T14:23:25.190Z,100659.25
2023-03-02T14:26:36.096Z,100650.94
2023-03-02T14:29:39.701Z,100652.62
2023-03-02T14:32:42.547Z,100655.09
2023-03-02T14:35:51.203Z,100649.84
2023-03-02T14:38:56.982Z,100655.50
2023-03-02T14:42:00.495Z,100647.75
2023-03-02T14:45:03.347Z,100653.34
2023-03-02T14:48:06.296Z,100645.28
2023-03-02T14:51:24.250Z,100645.69
2023-03-02T14:54:32.580Z,100633.50
2023-03-02T14:57:38.574Z,100637.72
2023-03-02T15:00:44.005Z,100638.19
2023-03-02T15:03:46.595Z,100635.38
2023-03-02T15:06:49.771Z,100630.06
2023-03-02T15:09:52.604Z,100633.34
2023-03-02T15:12:55.527Z,100631.81
2023-03-02T15:15:58.034Z,100632.34
2023-03-02T15:19:00.952Z,100630.53
2023-03-02T15:22:04.425Z,100636.94
2023-03-02T15:25:07.518Z,100638.19
2023-03-02T15:28:10.525Z,100634.84
2023-03-02T15:31:16.127Z,100636.31
2023-03-02T15:34:18.743Z,100629.94
2023-03-02T15:37:21.579Z,100638.88
2023-03-02T15:40:25.756Z,100644.56
2023-03-02T15:43:28.923Z,100640.44
2023-03-02T15:46:31.467Z,100643.28
2023-03-02T15:49:34.294Z,100647.69
2023-03-02T15:52:36.797Z,100643.87
2023-03-02T15:55:42.696Z,100635.09
2023-03-02T15:58:47.249Z,100643.22
2023-03-02T16:01:50.215Z,100638.06
2023-03-02T16:04:53.075Z,100637.03
2023-03-02T16:07:55.598Z,100637.47
2023-03-02T16:11:03.337Z,100636.75
2023-03-02T16:14:06.190Z,100642.12
2023-03-02T16:17:09.039Z,100640.16
2023-03-02T16:20:12.208Z,100644.72
2023-03-02T16:23:16.126Z,100646.22
2023-03-02T16:26:20.889Z,100648.94
2023-03-02T16:29:24.265Z,100649.09
2023-03-02T16:32:28.023Z,100655.97
2023-03-02T16:35:32.984Z,100649.72
2023-03-02T16:38:36.933Z,100651.25
2023-03-02T16:41:41.870Z,100660.69
2023-03-02T16:44:45.927Z,100654.91
2023-03-02T16:47:49.335Z,100660.66
2023-03-02T16:50:56.483Z,100658.88
2023-03-02T16:53:59.388Z,100665.72
2023-03-02T16:57:02.132Z,100664.84
2023-03-02T17:00:07.189Z,100669.69
2023-03-02T17:03:11.451Z,100679.66
2023-03-02T17:06:16.440Z,100680.94
2023-03-02T17:09:19.008Z,100679.59
2023-03-02T17:12:21.898Z,100682.84
2023-03-02T17:15:24.670Z,100683.03
2023-03-02T17:18:28.209Z,100680.69
2023-03-02T17:21:31.094Z,100692.97
2023-03-02T17:24:34.629Z,100689.75
2023-03-02T17:27:37.550Z,100687.97
2023-03-02T17:30:42.953Z,100692.22
2023-03-02T17:33:45.695Z,100686.81
2023-03-02T17:36:48.592Z,100686.12
2023-03-02T17:39:52.403Z,100692.84
2023-03-02T17:42:58.149Z,100691.53
2023-03-02T17:46:15.613Z,100696.47
2023-03-02T17:49:18.913Z,100695.28
2023-03-02T17:52:21.842Z,100694.22
2023-03-02T17:55:24.663Z,100701.63
2023-03-02T17:58:33.211Z,100699.59
2023-03-02T18:01:45.791Z,100698.75
2023-03-02T18:04:48.594Z,100699.31
2023-03-02T18:07:52.710Z,100694.63
2023-03-02T18:10:56.648Z,100694.94
2023-03-02T18:13:59.610Z,100700.47
2023-03-02T18:17:04.967Z,100704.03
2023-03-02T18:20:08.207Z,100701.63
2023-03-02T18:23:12.779Z,100692.31
2023-03-02T18:26:15.473Z,100697.59
2023-03-02T18:29:18.502Z,100696.59
2023-03-02T18:32:21.134Z,100702.59
2023-03-02T18:35:24.307Z,100700.16
2023-03-02T18:38:30.781Z,100693.38
2023-03-02T18:41:34.042Z,100703.94
2023-03-02T18:44:36.922Z,100705.59
2023-03-02T18:47:39.706Z,100704.97
2023-03-02T18:50:43.802Z,100706.16
2023-03-02T18:53:47.330Z,100705.56
2023-03-02T18:56:50.023Z,100705.72
2023-03-02T18:59:52.849Z,100702.38
2023-03-02T19:02:56.550Z,100703.47
2023-03-02T19:05:59.731Z,100707.78
2023-03-02T19:09:02.392Z,100712.06
2023-03-02T19:12:05.760Z,100707.75
2023-03-02T19:15:10.584Z,100711.00
2023-03-02T19:18:22.283Z,100707.03
2023-03-02T19:21:25.207Z,100712.53
2023-03-02T19:24:28.370Z,100716.22
2023-03-02T19:27:30.971Z,100709.53
2023-03-02T19:30:36.789Z,100707.03
2023-03-02T19:33:40.362Z,100706.91
2023-03-02T19:36:43.868Z,100709.56
2023-03-02T19:39:46.476Z,100711.37
2023-03-02T19:42:49.628Z,100714.16
2023-03-02T19:45:53.035Z,100712.66
2023-03-02T19:48:58.862Z,100715.31
2023-03-02T19:52:01.993Z,100719.69
2023-03-02T19:55:06.779Z,100721.50
2023-03-02T19:58:11.231Z,100727.50
2023-03-02T20:01:21.464Z,100725.09
2023-03-02T20:04:24.776Z,100727.66
2023-03-02T20:07:27.409Z,100712.41
2023-03-02T20:10:37.069Z,100720.97
2023-03-02T20:13:40.015Z,100715.94
2023-03-02T20:16:43.005Z,100725.63
2023-03-02T20:19:47.232Z,100728.44
2023-03-02T20:22:50.285Z,100726.97
2023-03-02T20:25:52.941Z,100724.56
2023-03-02T20:28:56.905Z,100732.22
2023-03-02T20:32:00.308Z,100733.25
2023-03-02T20:35:03.602Z,100734.25
2023-03-02T20:38:09.092Z,100736.91
2023-03-02T20:41:13.401Z,100732.69
2023-03-02T20:44:16.265Z,100737.00
2023-03-02T20:47:19.547Z,100733.56
2023-03-02T20:50:26.067Z,100737.03
2023-03-02T20:53:29.450Z,100738.81
2023-03-02T20:56:32.310Z,100731.97
2023-03-02T20:59:37.437Z,100730.25
2023-03-02T21:02:40.353Z,100720.84
2023-03-02T21:05:43.931Z,100718.28
2023-03-02T21:08:47.320Z,100721.72
2023-03-02T21:11:50.174Z,100714.00
2023-03-02T21:14:53.412Z,100717.50
2023-03-02T21:17:57.269Z,100718.41
2023-03-02T21:21:02.864Z,100713.41
2023-03-02T21:24:06.031Z,100707.56
2023-03-02T21:27:08.604Z,100709.31
2023-03-02T21:30:20.338Z,100706.81
2023-03-02T21:33:22.914Z,100705.94
2023-03-02T21:36:26.422Z,100706.81
2023-03-02T21:39:29.106Z,100716.28
2023-03-02T21:42:32.005Z,100704.44
2023-03-02T21:45:36.107Z,100707.94
2023-03-02T21:48:39.339Z,100708.00
2023-03-02T21:51:42.294Z,100718.28
2023-03-02T21:54:45.266Z,100708.88
2023-03-02T21:57:48.347Z,100718.25
2023-03-02T22:00:51.618Z,100715.72
2023-03-02T22:03:54.536Z,100716.62
2023-03-02T22:06:57.097Z,100720.06
2023-03-02T22:10:00.041Z,100713.22
2023-03-02T22:13:23.507Z,100711.66
2023-03-02T22:16:29.446Z,100710.88
2023-03-02T22:19:32.904Z,100711.78
2023-03-02T22:22:35.737Z,100712.66
2023-03-02T22:25:38.300Z,100715.19
2023-03-02T22:28:41.821Z,100712.63
2023-03-02T22:31:49.881Z,100707.53
2023-03-02T22:34:58.619Z,100706.69
2023-03-02T22:38:05.234Z,100700.69
2023-03-02T22:41:14.376Z,100703.34
2023-03-02T22:44:17.047Z,100697.38
2023-03-02T22:47:20.692Z,100700.81
2023-03-02T22:50:29.910Z,100701.66
2023-03-02T22:53:33.208Z,100705.97
2023-03-02T22:56:38.557Z,100703.44
2023-03-02T22:59:41.459Z,100700.88
2023-03-02T23:02:46.280Z,100698.31
2023-03-02T23:05:53.058Z,100692.34
2023-03-02T23:09:06.453Z,100692.34
2023-03-02T23:12:18.870Z,100692.34
2023-03-02T23:15:21.833Z,100683.81
2023-03-02T23:18:28.824Z,100682.13
2023-03-02T23:21:38.909Z,100684.75
2023-03-02T23:24:42.101Z,100683.91
2023-03-02T23:27:44.736Z,100683.94
2023-03-02T23:30:47.941Z,100687.34
2023-03-02T23:33:51.136Z,100683.06
2023-03-02T23:36:53.890Z,100676.28
2023-03-02T23:39:56.430Z,100680.56
2023-03-02T23:42:59.289Z,100674.59
2023-03-02T23:46:02.196Z,100674.59
2023-03-02T23:49:05.104Z,100667.78
2023-03-02T23:52:07.542Z,100669.47
2023-03-02T23:55:10.726Z,100666.91
2023-03-02T23:58:13.299Z,100668.66
